sensor_id;sensor_type;location;lat;lon;timestamp;temperature;humidity
58809;DHT22;44579;51.672;7.834;2023-04-06T00:00:14;3.00;56.50
58809;DHT22;44579;51.672;7.834;2023-04-06T00:02:43;3.00;56.70
58809;DHT22;44579;51.672;7.834;2023-04-06T00:05:10;3.00;56.70
58809;DHT22;44579;51.672;7.834;2023-04-06T00:07:36;3.00;56.70
58809;DHT22;44579;51.672;7.834;2023-04-06T00:10:03;3.00;56.70
58809;DHT22;44579;51.672;7.834;2023-04-06T00:12:30;3.00;56.70
58809;DHT22;44579;51.672;7.834;2023-04-06T00:14:57;3.00;56.80
58809;DHT22;44579;51.672;7.834;2023-04-06T00:17:24;2.90;56.70
58809;DHT22;44579;51.672;7.834;2023-04-06T00:19:51;2.90;56.80
58809;DHT22;44579;51.672;7.834;2023-04-06T00:22:17;2.80;56.90
58809;DHT22;44579;51.672;7.834;2023-04-06T00:24:44;2.80;57.00
58809;DHT22;44579;51.672;7.834;2023-04-06T00:27:11;2.80;57.10
58809;DHT22;44579;51.672;7.834;2023-04-06T00:29:38;2.80;57.00
58809;DHT22;44579;51.672;7.834;2023-04-06T00:32:05;2.70;57.00
58809;DHT22;44579;51.672;7.834;2023-04-06T00:34:32;2.70;57.00
58809;DHT22;44579;51.672;7.834;2023-04-06T00:36:59;2.70;57.00
58809;DHT22;44579;51.672;7.834;2023-04-06T00:39:26;2.70;57.00
58809;DHT22;44579;51.672;7.834;2023-04-06T00:41:53;2.70;57.10
58809;DHT22;44579;51.672;7.834;2023-04-06T00:44:21;2.70;56.90
58809;DHT22;44579;51.672;7.834;2023-04-06T00:46:48;2.70;56.90
58809;DHT22;44579;51.672;7.834;2023-04-06T00:49:16;2.60;57.00
58809;DHT22;44579;51.672;7.834;2023-04-06T00:51:43;2.60;57.00
58809;DHT22;44579;51.672;7.834;2023-04-06T00:54:10;2.60;57.00
58809;DHT22;44579;51.672;7.834;2023-04-06T00:56:37;2.60;57.00
58809;DHT22;44579;51.672;7.834;2023-04-06T00:59:04;2.50;56.90
58809;DHT22;44579;51.672;7.834;2023-04-06T01:01:31;2.50;57.00
58809;DHT22;44579;51.672;7.834;2023-04-06T01:04:04;2.50;57.10
58809;DHT22;44579;51.672;7.834;2023-04-06T01:06:38;2.50;57.10
58809;DHT22;44579;51.672;7.834;2023-04-06T01:09:05;2.40;57.10
58809;DHT22;44579;51.672;7.834;2023-04-06T01:11:33;2.40;57.10
58809;DHT22;44579;51.672;7.834;2023-04-06T01:14:03;2.40;57.10
58809;DHT22;44579;51.672;7.834;2023-04-06T01:16:44;2.40;57.20
58809;DHT22;44579;51.672;7.834;2023-04-06T01:19:21;2.40;57.20
58809;DHT22;44579;51.672;7.834;2023-04-06T01:21:51;2.40;57.30
58809;DHT22;44579;51.672;7.834;2023-04-06T01:24:31;2.40;57.20
58809;DHT22;44579;51.672;7.834;2023-04-06T01:27:11;2.30;57.20
58809;DHT22;44579;51.672;7.834;2023-04-06T01:30:14;2.40;57.30
58809;DHT22;44579;51.672;7.834;2023-04-06T01:32:47;2.30;57.20
58809;DHT22;44579;51.672;7.834;2023-04-06T01:35:18;2.30;57.20
58809;DHT22;44579;51.672;7.834;2023-04-06T01:37:56;2.30;57.30
58809;DHT22;44579;51.672;7.834;2023-04-06T01:40:28;2.20;57.30
58809;DHT22;44579;51.672;7.834;2023-04-06T01:42:55;2.20;57.30
58809;DHT22;44579;51.672;7.834;2023-04-06T01:45:34;2.30;57.30
58809;DHT22;44579;51.672;7.834;2023-04-06T01:48:11;2.30;57.30
58809;DHT22;44579;51.672;7.834;2023-04-06T01:50:38;2.20;57.20
58809;DHT22;44579;51.672;7.834;2023-04-06T01:53:07;2.20;57.20
58809;DHT22;44579;51.672;7.834;2023-04-06T01:55:35;2.20;57.90
58809;DHT22;44579;51.672;7.834;2023-04-06T01:58:19;2.20;57.30
58809;DHT22;44579;51.672;7.834;2023-04-06T02:00:47;2.20;57.30
58809;DHT22;44579;51.672;7.834;2023-04-06T02:03:14;2.20;57.30
58809;DHT22;44579;51.672;7.834;2023-04-06T02:05:42;2.10;57.40
58809;DHT22;44579;51.672;7.834;2023-04-06T02:08:36;2.10;57.40
58809;DHT22;44579;51.672;7.834;2023-04-06T02:11:02;2.10;57.50
58809;DHT22;44579;51.672;7.834;2023-04-06T02:13:35;2.00;57.50
58809;DHT22;44579;51.672;7.834;2023-04-06T02:16:02;2.00;57.60
58809;DHT22;44579;51.672;7.834;2023-04-06T02:18:30;2.00;57.60
58809;DHT22;44579;51.672;7.834;2023-04-06T02:20:57;1.90;57.60
58809;DHT22;44579;51.672;7.834;2023-04-06T02:23:24;1.90;57.70
58809;DHT22;44579;51.672;7.834;2023-04-06T02:25:50;1.90;57.80
58809;DHT22;44579;51.672;7.834;2023-04-06T02:28:18;1.90;57.80
58809;DHT22;44579;51.672;7.834;2023-04-06T02:30:45;1.80;57.70
58809;DHT22;44579;51.672;7.834;2023-04-06T02:33:13;1.80;57.80
58809;DHT22;44579;51.672;7.834;2023-04-06T02:35:44;1.80;57.80
58809;DHT22;44579;51.672;7.834;2023-04-06T02:38:11;1.80;57.80
58809;DHT22;44579;51.672;7.834;2023-04-06T02:40:37;1.80;57.80
58809;DHT22;44579;51.672;7.834;2023-04-06T02:43:15;1.80;57.80
58809;DHT22;44579;51.672;7.834;2023-04-06T02:45:44;1.70;57.80
58809;DHT22;44579;51.672;7.834;2023-04-06T02:48:12;1.70;57.80
58809;DHT22;44579;51.672;7.834;2023-04-06T02:50:39;1.70;57.80
58809;DHT22;44579;51.672;7.834;2023-04-06T02:53:07;1.60;57.80
58809;DHT22;44579;51.672;7.834;2023-04-06T02:55:36;1.70;57.90
58809;DHT22;44579;51.672;7.834;2023-04-06T02:58:03;1.60;57.80
58809;DHT22;44579;51.672;7.834;2023-04-06T03:00:37;1.70;58.50
58809;DHT22;44579;51.672;7.834;2023-04-06T03:03:04;1.60;57.70
58809;DHT22;44579;51.672;7.834;2023-04-06T03:05:31;1.60;57.70
58809;DHT22;44579;51.672;7.834;2023-04-06T03:07:58;1.60;57.70
58809;DHT22;44579;51.672;7.834;2023-04-06T03:10:50;1.60;57.70
58809;DHT22;44579;51.672;7.834;2023-04-06T03:13:18;1.60;57.70
58809;DHT22;44579;51.672;7.834;2023-04-06T03:15:51;1.60;57.70
58809;DHT22;44579;51.672;7.834;2023-04-06T03:18:23;1.50;57.70
58809;DHT22;44579;51.672;7.834;2023-04-06T03:20:52;1.40;57.80
58809;DHT22;44579;51.672;7.834;2023-04-06T03:23:27;1.40;57.90
58809;DHT22;44579;51.672;7.834;2023-04-06T03:25:58;1.40;57.90
58809;DHT22;44579;51.672;7.834;2023-04-06T03:28:25;1.40;57.90
58809;DHT22;44579;51.672;7.834;2023-04-06T03:30:55;1.40;57.90
58809;DHT22;44579;51.672;7.834;2023-04-06T03:33:39;1.30;57.80
58809;DHT22;44579;51.672;7.834;2023-04-06T03:36:08;1.30;58.00
58809;DHT22;44579;51.672;7.834;2023-04-06T03:38:39;1.30;58.00
58809;DHT22;44579;51.672;7.834;2023-04-06T03:41:11;1.30;58.00
58809;DHT22;44579;51.672;7.834;2023-04-06T03:43:41;1.30;58.10
58809;DHT22;44579;51.672;7.834;2023-04-06T03:46:08;1.20;58.10
58809;DHT22;44579;51.672;7.834;2023-04-06T03:48:35;1.20;58.20
58809;DHT22;44579;51.672;7.834;2023-04-06T03:51:05;1.20;58.20
58809;DHT22;44579;51.672;7.834;2023-04-06T03:53:32;1.20;58.20
58809;DHT22;44579;51.672;7.834;2023-04-06T03:55:59;1.20;58.20
58809;DHT22;44579;51.672;7.834;2023-04-06T03:58:29;1.20;58.20
58809;DHT22;44579;51.672;7.834;2023-04-06T04:00:57;1.20;58.20
58809;DHT22;44579;51.672;7.834;2023-04-06T04:03:23;1.10;58.10
58809;DHT22;44579;51.672;7.834;2023-04-06T04:05:53;1.10;58.20
58809;DHT22;44579;51.672;7.834;2023-04-06T04:08:20;1.00;58.20
58809;DHT22;44579;51.672;7.834;2023-04-06T04:10:47;1.10;58.30
58809;DHT22;44579;51.672;7.834;2023-04-06T04:13:14;1.00;58.20
58809;DHT22;44579;51.672;7.834;2023-04-06T04:15:44;1.00;58.30
58809;DHT22;44579;51.672;7.834;2023-04-06T04:18:11;1.00;58.20
58809;DHT22;44579;51.672;7.834;2023-04-06T04:20:39;1.00;58.20
58809;DHT22;44579;51.672;7.834;2023-04-06T04:23:08;1.10;58.30
58809;DHT22;44579;51.672;7.834;2023-04-06T04:25:35;1.00;58.20
58809;DHT22;44579;51.672;7.834;2023-04-06T04:28:02;1.00;58.20
58809;DHT22;44579;51.672;7.834;2023-04-06T04:30:30;0.90;58.20
58809;DHT22;44579;51.672;7.834;2023-04-06T04:32:57;0.90;58.20
58809;DHT22;44579;51.672;7.834;2023-04-06T04:35:24;0.90;58.20
58809;DHT22;44579;51.672;7.834;2023-04-06T04:37:51;0.90;58.30
58809;DHT22;44579;51.672;7.834;2023-04-06T04:40:18;0.90;58.30
58809;DHT22;44579;51.672;7.834;2023-04-06T04:42:53;0.90;58.30
58809;DHT22;44579;51.672;7.834;2023-04-06T04:45:26;0.90;58.30
58809;DHT22;44579;51.672;7.834;2023-04-06T04:47:54;0.90;58.40
58809;DHT22;44579;51.672;7.834;2023-04-06T04:50:24;0.90;58.40
58809;DHT22;44579;51.672;7.834;2023-04-06T04:52:55;0.80;58.40
58809;DHT22;44579;51.672;7.834;2023-04-06T04:55:24;0.90;58.40
58809;DHT22;44579;51.672;7.834;2023-04-06T04:57:54;0.90;58.40
58809;DHT22;44579;51.672;7.834;2023-04-06T05:00:30;0.80;58.40
58809;DHT22;44579;51.672;7.834;2023-04-06T05:02:58;0.90;58.40
58809;DHT22;44579;51.672;7.834;2023-04-06T05:05:28;0.90;58.50
58809;DHT22;44579;51.672;7.834;2023-04-06T05:07:55;0.90;58.40
58809;DHT22;44579;51.672;7.834;2023-04-06T05:10:42;0.90;58.40
58809;DHT22;44579;51.672;7.834;2023-04-06T05:13:09;1.00;58.40
58809;DHT22;44579;51.672;7.834;2023-04-06T05:15:36;1.00;58.30
58809;DHT22;44579;51.672;7.834;2023-04-06T05:18:12;1.00;58.20
58809;DHT22;44579;51.672;7.834;2023-04-06T05:20:39;1.00;58.20
58809;DHT22;44579;51.672;7.834;2023-04-06T05:23:07;1.10;58.30
58809;DHT22;44579;51.672;7.834;2023-04-06T05:25:33;1.10;58.30
58809;DHT22;44579;51.672;7.834;2023-04-06T05:28:11;1.10;58.40
58809;DHT22;44579;51.672;7.834;2023-04-06T05:30:45;1.10;58.40
58809;DHT22;44579;51.672;7.834;2023-04-06T05:33:18;1.20;58.40
58809;DHT22;44579;51.672;7.834;2023-04-06T05:36:07;1.30;58.40
58809;DHT22;44579;51.672;7.834;2023-04-06T05:38:39;1.40;58.40
58809;DHT22;44579;51.672;7.834;2023-04-06T05:41:25;1.40;58.50
58809;DHT22;44579;51.672;7.834;2023-04-06T05:43:52;1.40;58.40
58809;DHT22;44579;51.672;7.834;2023-04-06T05:46:19;1.50;58.40
58809;DHT22;44579;51.672;7.834;2023-04-06T05:48:47;1.60;58.40
58809;DHT22;44579;51.672;7.834;2023-04-06T05:51:14;1.70;58.50
58809;DHT22;44579;51.672;7.834;2023-04-06T05:53:46;1.80;58.40
58809;DHT22;44579;51.672;7.834;2023-04-06T05:56:13;1.90;58.40
58809;DHT22;44579;51.672;7.834;2023-04-06T05:58:40;2.00;58.40
58809;DHT22;44579;51.672;7.834;2023-04-06T06:01:09;2.10;58.30
58809;DHT22;44579;51.672;7.834;2023-04-06T06:03:41;2.20;58.30
58809;DHT22;44579;51.672;7.834;2023-04-06T06:06:07;2.20;58.30
58809;DHT22;44579;51.672;7.834;2023-04-06T06:08:54;2.30;58.20
58809;DHT22;44579;51.672;7.834;2023-04-06T06:11:22;2.40;58.20
58809;DHT22;44579;51.672;7.834;2023-04-06T06:13:49;2.50;58.10
58809;DHT22;44579;51.672;7.834;2023-04-06T06:16:16;2.60;58.20
58809;DHT22;44579;51.672;7.834;2023-04-06T06:18:46;2.60;58.20
58809;DHT22;44579;51.672;7.834;2023-04-06T06:21:13;2.70;58.10
58809;DHT22;44579;51.672;7.834;2023-04-06T06:23:41;2.80;58.20
58809;DHT22;44579;51.672;7.834;2023-04-06T06:26:12;2.90;58.20
58809;DHT22;44579;51.672;7.834;2023-04-06T06:28:39;2.90;58.30
58809;DHT22;44579;51.672;7.834;2023-04-06T06:31:06;3.00;58.30
58809;DHT22;44579;51.672;7.834;2023-04-06T06:33:34;3.10;58.30
58809;DHT22;44579;51.672;7.834;2023-04-06T06:36:01;3.10;58.30
58809;DHT22;44579;51.672;7.834;2023-04-06T06:38:29;3.20;58.40
58809;DHT22;44579;51.672;7.834;2023-04-06T06:40:59;3.30;58.40
58809;DHT22;44579;51.672;7.834;2023-04-06T06:43:30;3.40;58.50
58809;DHT22;44579;51.672;7.834;2023-04-06T06:46:07;3.40;58.50
58809;DHT22;44579;51.672;7.834;2023-04-06T06:48:34;3.50;58.60
58809;DHT22;44579;51.672;7.834;2023-04-06T06:51:01;3.60;58.70
58809;DHT22;44579;51.672;7.834;2023-04-06T06:53:28;3.70;58.70
58809;DHT22;44579;51.672;7.834;2023-04-06T06:55:55;3.80;58.80
58809;DHT22;44579;51.672;7.834;2023-04-06T06:58:22;3.80;58.80
58809;DHT22;44579;51.672;7.834;2023-04-06T07:00:59;3.90;58.80
58809;DHT22;44579;51.672;7.834;2023-04-06T07:03:29;4.00;58.90
58809;DHT22;44579;51.672;7.834;2023-04-06T07:05:55;4.10;58.90
58809;DHT22;44579;51.672;7.834;2023-04-06T07:08:23;4.20;59.00
58809;DHT22;44579;51.672;7.834;2023-04-06T07:10:51;4.20;59.00
58809;DHT22;44579;51.672;7.834;2023-04-06T07:13:19;4.30;59.10
58809;DHT22;44579;51.672;7.834;2023-04-06T07:15:52;4.30;59.20
58809;DHT22;44579;51.672;7.834;2023-04-06T07:18:19;4.40;59.20
58809;DHT22;44579;51.672;7.834;2023-04-06T07:20:46;4.50;59.30
58809;DHT22;44579;51.672;7.834;2023-04-06T07:23:14;4.60;59.30
58809;DHT22;44579;51.672;7.834;2023-04-06T07:25:42;4.60;59.40
58809;DHT22;44579;51.672;7.834;2023-04-06T07:28:09;4.70;59.40
58809;DHT22;44579;51.672;7.834;2023-04-06T07:30:36;4.80;59.50
58809;DHT22;44579;51.672;7.834;2023-04-06T07:33:04;4.90;59.40
58809;DHT22;44579;51.672;7.834;2023-04-06T07:35:34;5.00;59.50
58809;DHT22;44579;51.672;7.834;2023-04-06T07:38:04;5.20;59.50
58809;DHT22;44579;51.672;7.834;2023-04-06T07:40:32;5.30;59.40
58809;DHT22;44579;51.672;7.834;2023-04-06T07:42:59;5.40;59.30
58809;DHT22;44579;51.672;7.834;2023-04-06T07:45:26;5.60;59.30
58809;DHT22;44579;51.672;7.834;2023-04-06T07:47:54;5.60;59.20
58809;DHT22;44579;51.672;7.834;2023-04-06T07:50:23;5.80;59.30
58809;DHT22;44579;51.672;7.834;2023-04-06T07:52:51;5.90;59.30
58809;DHT22;44579;51.672;7.834;2023-04-06T07:55:19;6.00;59.30
58809;DHT22;44579;51.672;7.834;2023-04-06T07:57:46;6.00;59.30
58809;DHT22;44579;51.672;7.834;2023-04-06T08:00:12;6.10;59.50
58809;DHT22;44579;51.672;7.834;2023-04-06T08:02:40;6.10;59.50
58809;DHT22;44579;51.672;7.834;2023-04-06T08:05:07;6.20;59.60
58809;DHT22;44579;51.672;7.834;2023-04-06T08:07:34;6.20;59.60
58809;DHT22;44579;51.672;7.834;2023-04-06T08:10:02;6.30;59.70
58809;DHT22;44579;51.672;7.834;2023-04-06T08:12:29;6.50;59.70
58809;DHT22;44579;51.672;7.834;2023-04-06T08:14:56;6.50;59.60
58809;DHT22;44579;51.672;7.834;2023-04-06T08:17:23;6.70;59.70
58809;DHT22;44579;51.672;7.834;2023-04-06T08:19:50;6.80;59.50
58809;DHT22;44579;51.672;7.834;2023-04-06T08:22:16;7.00;59.50
58809;DHT22;44579;51.672;7.834;2023-04-06T08:24:43;7.20;59.30
58809;DHT22;44579;51.672;7.834;2023-04-06T08:27:10;7.20;59.20
58809;DHT22;44579;51.672;7.834;2023-04-06T08:29:37;7.30;59.40
58809;DHT22;44579;51.672;7.834;2023-04-06T08:32:04;7.30;59.50
58809;DHT22;44579;51.672;7.834;2023-04-06T08:34:34;7.40;59.50
58809;DHT22;44579;51.672;7.834;2023-04-06T08:37:01;7.50;59.50
58809;DHT22;44579;51.672;7.834;2023-04-06T08:39:28;7.50;59.60
58809;DHT22;44579;51.672;7.834;2023-04-06T08:41:57;7.50;59.70
58809;DHT22;44579;51.672;7.834;2023-04-06T08:44:26;7.60;59.80
58809;DHT22;44579;51.672;7.834;2023-04-06T08:46:53;7.70;59.80
58809;DHT22;44579;51.672;7.834;2023-04-06T08:49:21;7.80;59.70
58809;DHT22;44579;51.672;7.834;2023-04-06T08:51:48;7.80;59.80
58809;DHT22;44579;51.672;7.834;2023-04-06T08:54:15;7.80;59.80
58809;DHT22;44579;51.672;7.834;2023-04-06T08:56:42;7.90;60.00
58809;DHT22;44579;51.672;7.834;2023-04-06T08:59:09;7.90;60.10
58809;DHT22;44579;51.672;7.834;2023-04-06T09:01:38;7.90;60.30
58809;DHT22;44579;51.672;7.834;2023-04-06T09:04:07;7.90;60.40
58809;DHT22;44579;51.672;7.834;2023-04-06T09:06:37;8.00;60.40
58809;DHT22;44579;51.672;7.834;2023-04-06T09:09:05;8.10;60.50
58809;DHT22;44579;51.672;7.834;2023-04-06T09:11:43;8.10;60.50
58809;DHT22;44579;51.672;7.834;2023-04-06T09:14:09;8.20;60.60
58809;DHT22;44579;51.672;7.834;2023-04-06T09:16:40;8.30;60.50
58809;DHT22;44579;51.672;7.834;2023-04-06T09:19:08;8.20;60.70
58809;DHT22;44579;51.672;7.834;2023-04-06T09:21:35;8.20;60.80
58809;DHT22;44579;51.672;7.834;2023-04-06T09:24:03;8.30;61.10
58809;DHT22;44579;51.672;7.834;2023-04-06T09:26:30;8.30;61.00
58809;DHT22;44579;51.672;7.834;2023-04-06T09:28:57;8.40;61.10
58809;DHT22;44579;51.672;7.834;2023-04-06T09:31:25;8.50;61.30
58809;DHT22;44579;51.672;7.834;2023-04-06T09:33:52;8.60;61.20
58809;DHT22;44579;51.672;7.834;2023-04-06T09:36:19;8.70;61.20
58809;DHT22;44579;51.672;7.834;2023-04-06T09:38:53;8.70;61.10
58809;DHT22;44579;51.672;7.834;2023-04-06T09:41:27;8.70;60.90
58809;DHT22;44579;51.672;7.834;2023-04-06T09:46:31;8.70;61.30
58809;DHT22;44579;51.672;7.834;2023-04-06T09:49:09;8.80;61.70
58809;DHT22;44579;51.672;7.834;2023-04-06T09:51:40;8.80;61.70
58809;DHT22;44579;51.672;7.834;2023-04-06T09:54:09;8.90;62.10
58809;DHT22;44579;51.672;7.834;2023-04-06T09:57:00;9.10;62.10
58809;DHT22;44579;51.672;7.834;2023-04-06T09:59:37;9.20;62.10
58809;DHT22;44579;51.672;7.834;2023-04-06T10:02:05;9.20;62.10
58809;DHT22;44579;51.672;7.834;2023-04-06T10:04:48;9.20;62.00
58809;DHT22;44579;51.672;7.834;2023-04-06T10:07:16;9.20;62.00
58809;DHT22;44579;51.672;7.834;2023-04-06T10:09:44;9.30;62.20
58809;DHT22;44579;51.672;7.834;2023-04-06T10:12:12;9.40;62.20
58809;DHT22;44579;51.672;7.834;2023-04-06T10:14:39;9.40;62.10
58809;DHT22;44579;51.672;7.834;2023-04-06T10:17:07;9.50;62.00
58809;DHT22;44579;51.672;7.834;2023-04-06T10:19:54;9.60;62.00
58809;DHT22;44579;51.672;7.834;2023-04-06T10:22:24;9.60;61.80
58809;DHT22;44579;51.672;7.834;2023-04-06T10:24:56;9.70;61.90
58809;DHT22;44579;51.672;7.834;2023-04-06T10:27:30;9.80;62.00
58809;DHT22;44579;51.672;7.834;2023-04-06T10:30:04;9.90;62.20
58809;DHT22;44579;51.672;7.834;2023-04-06T10:32:32;10.00;62.40
58809;DHT22;44579;51.672;7.834;2023-04-06T10:35:08;10.10;62.20
58809;DHT22;44579;51.672;7.834;2023-04-06T10:40:32;10.10;62.60
58809;DHT22;44579;51.672;7.834;2023-04-06T10:43:09;10.20;62.70
58809;DHT22;44579;51.672;7.834;2023-04-06T10:45:37;10.40;62.50
58809;DHT22;44579;51.672;7.834;2023-04-06T10:48:14;10.50;62.40
58809;DHT22;44579;51.672;7.834;2023-04-06T10:50:46;10.40;62.30
58809;DHT22;44579;51.672;7.834;2023-04-06T10:53:47;10.50;62.70
58809;DHT22;44579;51.672;7.834;2023-04-06T10:56:10;10.60;63.10
58809;DHT22;44579;51.672;7.834;2023-04-06T10:58:38;10.60;63.50
58809;DHT22;44579;51.672;7.834;2023-04-06T11:01:11;10.60;63.50
58809;DHT22;44579;51.672;7.834;2023-04-06T11:03:45;10.60;63.70
58809;DHT22;44579;51.672;7.834;2023-04-06T11:06:21;10.70;63.60
58809;DHT22;44579;51.672;7.834;2023-04-06T11:08:48;10.70;63.60
58809;DHT22;44579;51.672;7.834;2023-04-06T11:11:16;10.70;63.70
58809;DHT22;44579;51.672;7.834;2023-04-06T11:13:49;10.80;63.90
58809;DHT22;44579;51.672;7.834;2023-04-06T11:16:16;10.90;63.80
58809;DHT22;44579;51.672;7.834;2023-04-06T11:19:00;10.90;63.80
58809;DHT22;44579;51.672;7.834;2023-04-06T11:21:32;11.00;63.90
58809;DHT22;44579;51.672;7.834;2023-04-06T11:29:11;11.20;64.00
58809;DHT22;44579;51.672;7.834;2023-04-06T11:31:42;11.20;64.10
58809;DHT22;44579;51.672;7.834;2023-04-06T11:34:13;11.30;64.20
58809;DHT22;44579;51.672;7.834;2023-04-06T11:36:40;11.40;64.20
58809;DHT22;44579;51.672;7.834;2023-04-06T11:39:08;11.50;64.30
58809;DHT22;44579;51.672;7.834;2023-04-06T11:41:35;11.50;64.30
58809;DHT22;44579;51.672;7.834;2023-04-06T11:44:03;11.60;64.30
58809;DHT22;44579;51.672;7.834;2023-04-06T11:46:29;11.60;64.40
58809;DHT22;44579;51.672;7.834;2023-04-06T11:49:00;11.70;64.50
58809;DHT22;44579;51.672;7.834;2023-04-06T11:51:27;11.80;64.50
58809;DHT22;44579;51.672;7.834;2023-04-06T11:53:54;11.90;64.40
58809;DHT22;44579;51.672;7.834;2023-04-06T11:56:23;12.10;64.50
58809;DHT22;44579;51.672;7.834;2023-04-06T11:59:03;12.20;64.50
58809;DHT22;44579;51.672;7.834;2023-04-06T12:01:30;12.30;64.10
58809;DHT22;44579;51.672;7.834;2023-04-06T12:04:05;12.50;64.30
58809;DHT22;44579;51.672;7.834;2023-04-06T12:06:32;12.60;64.30
58809;DHT22;44579;51.672;7.834;2023-04-06T12:09:02;12.60;64.00
58809;DHT22;44579;51.672;7.834;2023-04-06T12:11:29;12.50;64.00
58809;DHT22;44579;51.672;7.834;2023-04-06T12:13:56;12.40;64.50
58809;DHT22;44579;51.672;7.834;2023-04-06T12:16:22;12.40;64.90
58809;DHT22;44579;51.672;7.834;2023-04-06T12:18:49;12.40;65.00
58809;DHT22;44579;51.672;7.834;2023-04-06T12:21:17;12.50;64.90
58809;DHT22;44579;51.672;7.834;2023-04-06T12:23:44;12.50;64.90
58809;DHT22;44579;51.672;7.834;2023-04-06T12:26:10;12.50;65.10
58809;DHT22;44579;51.672;7.834;2023-04-06T12:28:39;12.60;65.00
58809;DHT22;44579;51.672;7.834;2023-04-06T12:31:07;12.70;65.10
58809;DHT22;44579;51.672;7.834;2023-04-06T12:33:34;12.70;65.10
58809;DHT22;44579;51.672;7.834;2023-04-06T12:36:01;12.70;65.10
58809;DHT22;44579;51.672;7.834;2023-04-06T12:38:28;12.70;65.10
58809;DHT22;44579;51.672;7.834;2023-04-06T12:40:54;12.70;65.20
58809;DHT22;44579;51.672;7.834;2023-04-06T12:43:21;12.80;65.00
58809;DHT22;44579;51.672;7.834;2023-04-06T12:45:49;12.90;65.20
58809;DHT22;44579;51.672;7.834;2023-04-06T12:48:16;13.00;65.20
58809;DHT22;44579;51.672;7.834;2023-04-06T12:50:42;13.00;65.10
58809;DHT22;44579;51.672;7.834;2023-04-06T12:53:09;13.20;65.00
58809;DHT22;44579;51.672;7.834;2023-04-06T12:55:36;13.20;64.90
58809;DHT22;44579;51.672;7.834;2023-04-06T12:58:03;13.30;65.30
58809;DHT22;44579;51.672;7.834;2023-04-06T13:00:30;13.30;65.40
58809;DHT22;44579;51.672;7.834;2023-04-06T13:02:57;13.40;65.10
58809;DHT22;44579;51.672;7.834;2023-04-06T13:05:24;13.50;65.10
58809;DHT22;44579;51.672;7.834;2023-04-06T13:07:54;13.50;65.10
58809;DHT22;44579;51.672;7.834;2023-04-06T13:10:20;13.50;65.10
58809;DHT22;44579;51.672;7.834;2023-04-06T13:12:47;13.50;65.10
58809;DHT22;44579;51.672;7.834;2023-04-06T13:15:17;13.50;65.20
58809;DHT22;44579;51.672;7.834;2023-04-06T13:17:44;13.60;65.20
58809;DHT22;44579;51.672;7.834;2023-04-06T13:20:10;13.50;65.00
58809;DHT22;44579;51.672;7.834;2023-04-06T13:22:37;13.50;65.20
58809;DHT22;44579;51.672;7.834;2023-04-06T13:25:04;13.40;65.30
58809;DHT22;44579;51.672;7.834;2023-04-06T13:27:33;13.40;65.50
58809;DHT22;44579;51.672;7.834;2023-04-06T13:30:02;13.30;65.50
58809;DHT22;44579;51.672;7.834;2023-04-06T13:32:29;13.40;65.50
58809;DHT22;44579;51.672;7.834;2023-04-06T13:34:57;13.40;65.30
58809;DHT22;44579;51.672;7.834;2023-04-06T13:37:24;13.50;65.10
58809;DHT22;44579;51.672;7.834;2023-04-06T13:39:50;13.50;65.10
58809;DHT22;44579;51.672;7.834;2023-04-06T13:42:17;13.40;65.10
58809;DHT22;44579;51.672;7.834;2023-04-06T13:44:44;13.50;65.10
58809;DHT22;44579;51.672;7.834;2023-04-06T13:47:13;13.40;64.90
58809;DHT22;44579;51.672;7.834;2023-04-06T13:49:40;13.40;64.90
58809;DHT22;44579;51.672;7.834;2023-04-06T13:52:07;13.40;65.00
58809;DHT22;44579;51.672;7.834;2023-04-06T13:54:33;13.30;64.90
58809;DHT22;44579;51.672;7.834;2023-04-06T13:57:01;13.30;64.90
58809;DHT22;44579;51.672;7.834;2023-04-06T13:59:34;13.30;64.90
58809;DHT22;44579;51.672;7.834;2023-04-06T14:02:02;13.40;64.80
58809;DHT22;44579;51.672;7.834;2023-04-06T14:04:29;13.40;64.70
58809;DHT22;44579;51.672;7.834;2023-04-06T14:06:57;13.40;64.60
58809;DHT22;44579;51.672;7.834;2023-04-06T14:09:23;13.40;64.50
58809;DHT22;44579;51.672;7.834;2023-04-06T14:11:50;13.50;64.40
58809;DHT22;44579;51.672;7.834;2023-04-06T14:14:17;13.50;64.30
58809;DHT22;44579;51.672;7.834;2023-04-06T14:16:46;13.50;64.30
58809;DHT22;44579;51.672;7.834;2023-04-06T14:19:14;13.60;64.30
58809;DHT22;44579;51.672;7.834;2023-04-06T14:21:45;13.60;64.10
58809;DHT22;44579;51.672;7.834;2023-04-06T14:24:12;13.60;64.10
58809;DHT22;44579;51.672;7.834;2023-04-06T14:26:40;13.60;64.00
58809;DHT22;44579;51.672;7.834;2023-04-06T14:29:11;13.60;63.80
58809;DHT22;44579;51.672;7.834;2023-04-06T14:31:38;13.60;63.80
58809;DHT22;44579;51.672;7.834;2023-04-06T14:34:05;13.60;63.80
58809;DHT22;44579;51.672;7.834;2023-04-06T14:36:32;13.60;63.90
58809;DHT22;44579;51.672;7.834;2023-04-06T14:39:03;13.70;63.90
58809;DHT22;44579;51.672;7.834;2023-04-06T14:41:31;13.70;63.80
58809;DHT22;44579;51.672;7.834;2023-04-06T14:43:58;13.70;63.80
58809;DHT22;44579;51.672;7.834;2023-04-06T14:46:25;13.60;63.70
58809;DHT22;44579;51.672;7.834;2023-04-06T14:48:56;13.60;63.70
58809;DHT22;44579;51.672;7.834;2023-04-06T14:51:24;13.60;63.80
58809;DHT22;44579;51.672;7.834;2023-04-06T14:53:52;13.50;63.70
58809;DHT22;44579;51.672;7.834;2023-04-06T14:56:19;13.50;63.50
58809;DHT22;44579;51.672;7.834;2023-04-06T14:58:46;13.40;63.50
58809;DHT22;44579;51.672;7.834;2023-04-06T15:01:13;13.40;63.50
58809;DHT22;44579;51.672;7.834;2023-04-06T15:03:40;13.30;63.50
58809;DHT22;44579;51.672;7.834;2023-04-06T15:06:11;13.20;63.40
58809;DHT22;44579;51.672;7.834;2023-04-06T15:08:39;13.20;63.40
58809;DHT22;44579;51.672;7.834;2023-04-06T15:11:06;13.10;63.20
58809;DHT22;44579;51.672;7.834;2023-04-06T15:13:33;13.00;63.00
58809;DHT22;44579;51.672;7.834;2023-04-06T15:16:00;13.00;62.80
58809;DHT22;44579;51.672;7.834;2023-04-06T15:18:27;13.00;62.80
58809;DHT22;44579;51.672;7.834;2023-04-06T15:20:54;13.00;62.70
58809;DHT22;44579;51.672;7.834;2023-04-06T15:23:21;13.00;62.50
58809;DHT22;44579;51.672;7.834;2023-04-06T15:25:48;13.00;62.50
58809;DHT22;44579;51.672;7.834;2023-04-06T15:28:15;13.00;62.50
58809;DHT22;44579;51.672;7.834;2023-04-06T15:30:42;13.00;62.20
58809;DHT22;44579;51.672;7.834;2023-04-06T15:33:09;13.10;62.10
58809;DHT22;44579;51.672;7.834;2023-04-06T15:35:36;13.10;62.00
58809;DHT22;44579;51.672;7.834;2023-04-06T15:38:08;13.10;61.80
58809;DHT22;44579;51.672;7.834;2023-04-06T15:40:41;13.10;61.60
58809;DHT22;44579;51.672;7.834;2023-04-06T15:43:08;13.00;61.50
58809;DHT22;44579;51.672;7.834;2023-04-06T15:45:35;13.00;61.40
58809;DHT22;44579;51.672;7.834;2023-04-06T15:48:01;13.00;61.20
58809;DHT22;44579;51.672;7.834;2023-04-06T15:50:31;12.90;61.10
58809;DHT22;44579;51.672;7.834;2023-04-06T15:52:58;12.90;60.70
58809;DHT22;44579;51.672;7.834;2023-04-06T15:55:26;12.80;60.30
58809;DHT22;44579;51.672;7.834;2023-04-06T15:57:52;12.80;60.40
58809;DHT22;44579;51.672;7.834;2023-04-06T16:00:19;12.70;60.40
58809;DHT22;44579;51.672;7.834;2023-04-06T16:02:46;12.70;60.40